Time;durP1;ratioP1;P1;durP2;ratioP2;P2;SDS_P1;SDS_P2;PMS_P1;PMS_P2;Temp;Humidity;BMP_temperature;BMP_pressure;BME280_temperature;BME280_humidity;BME280_pressure;Samples;Min_cycle;Max_cycle;Signal;HPM_P1;HPM_P2
2023/01/31 00:01:40;;;;;;;8.27;3.60;;;1.60;71.80;;;;;;4648283;30;115846;-78
2023/01/31 00:04:11;;;;;;;7.47;2.90;;;1.60;71.80;;;;;;4634166;30;115023;-78
2023/01/31 00:06:41;;;;;;;7.38;3.03;;;1.60;71.90;;;;;;4648461;30;115285;-78
2023/01/31 00:09:10;;;;;;;6.82;3.20;;;1.60;72.00;;;;;;4648724;30;114763;-78
2023/01/31 00:11:37;;;;;;;7.13;2.95;;;1.60;71.90;;;;;;4634580;30;114440;-78
2023/01/31 00:14:06;;;;;;;7.97;3.42;;;1.60;71.90;;;;;;4633440;30;116277;-79
2023/01/31 00:16:33;;;;;;;6.88;3.25;;;1.70;72.00;;;;;;4648074;30;114720;-78
2023/01/31 00:19:02;;;;;;;8.23;3.38;;;1.70;72.00;;;;;;4634767;30;114417;-78
2023/01/31 00:21:30;;;;;;;6.32;3.30;;;1.70;72.10;;;;;;4633234;30;116590;-79
2023/01/31 00:23:57;;;;;;;5.93;3.55;;;1.70;72.10;;;;;;4633986;30;116380;-79
2023/01/31 00:26:28;;;;;;;7.45;3.25;;;1.70;72.10;;;;;;4647924;30;117321;-78
2023/01/31 00:28:57;;;;;;;6.95;3.40;;;1.70;72.10;;;;;;4648579;30;114587;-78
2023/01/31 00:31:26;;;;;;;5.57;3.38;;;1.70;72.10;;;;;;4648576;30;114439;-78
2023/01/31 00:33:54;;;;;;;5.72;3.28;;;1.70;72.10;;;;;;4647528;30;115574;-78
2023/01/31 00:36:32;;;;;;;6.88;3.10;;;1.80;72.00;;;;;;4619220;30;115154;-78
2023/01/31 00:39:01;;;;;;;8.07;3.30;;;1.80;72.10;;;;;;4634052;30;115814;-78
2023/01/31 00:41:29;;;;;;;8.52;3.28;;;1.70;72.00;;;;;;4648630;30;115362;-78
2023/01/31 00:43:56;;;;;;;7.93;3.40;;;1.70;71.90;;;;;;4633724;30;115141;-78
2023/01/31 00:46:23;;;;;;;8.20;3.05;;;1.70;71.90;;;;;;4648190;30;116422;-79
2023/01/31 00:48:51;;;;;;;6.45;2.92;;;1.70;71.90;;;;;;4648366;30;114493;-78
2023/01/31 00:51:19;;;;;;;9.48;3.38;;;1.80;71.90;;;;;;4634318;30;114500;-79
2023/01/31 00:53:46;;;;;;;8.30;3.50;;;1.70;71.90;;;;;;4647141;30;115162;-79
2023/01/31 00:56:15;;;;;;;8.77;3.78;;;1.70;71.90;;;;;;4647780;30;115392;-78
2023/01/31 00:58:43;;;;;;;10.82;4.15;;;1.80;72.00;;;;;;4649316;30;115097;-78
2023/01/31 01:01:16;;;;;;;7.40;3.95;;;1.80;71.90;;;;;;4633188;30;115637;-78
2023/01/31 01:03:44;;;;;;;9.55;4.10;;;1.80;72.00;;;;;;4647019;30;115104;-79
2023/01/31 01:06:15;;;;;;;13.40;4.25;;;1.70;72.00;;;;;;4632213;30;114850;-78
2023/01/31 01:08:42;;;;;;;11.07;4.38;;;1.80;72.10;;;;;;4648908;30;114758;-79
2023/01/31 01:11:15;;;;;;;11.48;4.20;;;1.80;72.10;;;;;;4619432;30;114823;-78
2023/01/31 01:13:43;;;;;;;12.18;4.35;;;1.80;72.00;;;;;;4633168;30;115484;-78
2023/01/31 01:16:30;;;;;;;12.13;4.22;;;1.70;72.00;;;;;;4648188;30;114883;-78
2023/01/31 01:18:57;;;;;;;11.80;4.10;;;1.70;72.10;;;;;;4633448;30;114752;-78
2023/01/31 01:21:29;;;;;;;14.00;4.70;;;1.70;72.00;;;;;;4647200;30;114612;-79
2023/01/31 01:23:59;;;;;;;;;;;1.70;72.00;;;;;;4647349;30;115259;-78
2023/01/31 01:26:30;;;;;;;7.00;2.63;;;1.60;71.70;;;;;;4636340;30;114782;-78
2023/01/31 01:28:59;;;;;;;12.02;2.83;;;1.50;72.00;;;;;;4629486;30;114351;-78
2023/01/31 01:31:29;;;;;;;7.72;2.90;;;1.50;72.20;;;;;;4643687;30;114410;-77
2023/01/31 01:33:59;;;;;;;7.10;2.78;;;1.50;72.30;;;;;;4632634;30;115291;-78
2023/01/31 01:36:26;;;;;;;14.13;3.33;;;1.40;72.40;;;;;;4618326;30;114844;-78
2023/01/31 01:38:54;;;;;;;9.38;3.25;;;1.40;72.50;;;;;;4633467;30;114497;-78
2023/01/31 01:41:23;;;;;;;10.05;3.25;;;1.50;72.50;;;;;;4619317;30;114880;-77
2023/01/31 01:43:54;;;;;;;12.57;3.42;;;1.40;72.60;;;;;;4646901;30;115265;-78
2023/01/31 01:46:35;;;;;;;9.38;3.25;;;1.50;72.70;;;;;;4648590;30;115819;-78
2023/01/31 01:49:19;;;;;;;8.02;3.00;;;1.50;72.70;;;;;;4649042;30;114606;-77
2023/01/31 01:51:47;;;;;;;11.55;3.55;;;1.50;72.70;;;;;;4649179;30;115211;-78
2023/01/31 01:54:26;;;;;;;9.10;3.08;;;1.50;72.60;;;;;;4632646;30;115444;-78
2023/01/31 01:56:59;;;;;;;7.35;2.88;;;1.60;72.60;;;;;;4632822;30;114863;-77
2023/01/31 01:59:32;;;;;;;9.68;3.00;;;1.60;72.40;;;;;;4633729;30;114774;-78
2023/01/31 02:01:59;;;;;;;15.30;3.35;;;1.60;72.30;;;;;;4633837;30;117506;-77
2023/01/31 02:04:36;;;;;;;10.68;2.63;;;1.60;72.10;;;;;;4633737;30;115536;-78
2023/01/31 02:07:03;;;;;;;12.93;2.72;;;1.60;72.00;;;;;;4633562;30;114707;-78
2023/01/31 02:10:03;;;;;;;19.52;3.72;;;1.70;71.90;;;;;;4633932;30;114909;-77
2023/01/31 02:12:31;;;;;;;11.27;2.58;;;1.70;71.80;;;;;;4620019;30;114488;-78
2023/01/31 02:14:59;;;;;;;10.93;3.03;;;1.70;71.60;;;;;;4635478;30;115863;-78
2023/01/31 02:17:26;;;;;;;10.25;2.65;;;1.70;71.40;;;;;;4650321;30;114990;-78
2023/01/31 02:20:37;;;;;;;9.48;3.10;;;1.70;71.40;;;;;;4636494;30;114446;-77
2023/01/31 02:24:11;;;;;;;8.75;2.53;;;1.80;71.40;;;;;;4639058;30;114605;-77
2023/01/31 02:27:15;;;;;;;11.00;3.03;;;1.80;71.40;;;;;;4643502;30;115206;-79
2023/01/31 02:30:33;;;;;;;9.60;3.45;;;1.80;71.30;;;;;;4650148;30;114839;-78
2023/01/31 02:33:19;;;;;;;13.07;3.55;;;1.80;71.20;;;;;;4643424;30;114827;-78
2023/01/31 02:36:01;;;;;;;10.30;2.58;;;1.80;71.20;;;;;;4636151;30;114717;-79
2023/01/31 02:38:49;;;;;;;7.68;2.70;;;1.70;71.10;;;;;;4651222;30;115196;-78
2023/01/31 02:41:48;;;;;;;12.80;2.70;;;1.80;70.90;;;;;;4649925;30;114712;-78
2023/01/31 02:45:20;;;;;;;10.20;2.05;;;1.70;70.80;;;;;;4650765;30;114869;-78
2023/01/31 02:48:32;;;;;;;11.80;2.00;;;1.80;70.50;;;;;;4621303;30;114773;-78
2023/01/31 02:52:14;;;;;;;11.90;2.30;;;1.80;70.30;;;;;;4649435;30;118242;-79
2023/01/31 02:56:13;;;;;;;12.02;2.85;;;1.80;70.00;;;;;;4624034;30;115284;-78
2023/01/31 02:57:21;;;;;;;10.20;2.55;;;1.70;70.00;;;;;;4647829;30;114533;-78
2023/01/31 02:59:49;;;;;;;9.95;2.28;;;1.70;69.80;;;;;;4634215;30;114646;-78
2023/01/31 03:02:17;;;;;;;9.50;2.22;;;1.80;69.80;;;;;;4635107;30;115694;-78
2023/01/31 03:04:45;;;;;;;10.43;2.25;;;1.70;69.60;;;;;;4635933;30;114783;-79
2023/01/31 03:07:16;;;;;;;7.47;2.00;;;1.80;69.60;;;;;;4651202;30;114715;-78
2023/01/31 03:10:15;;;;;;;12.45;2.25;;;1.80;69.50;;;;;;4636491;30;114524;-78
2023/01/31 03:13:23;;;;;;;13.35;3.25;;;1.80;69.30;;;;;;4649135;30;115170;-78
2023/01/31 03:19:38;;;;;;;8.65;2.17;;;1.90;69.20;;;;;;4649898;30;114946;-78
2023/01/31 03:22:17;;;;;;;9.10;2.05;;;1.80;69.30;;;;;;4635410;30;114687;-79
2023/01/31 03:24:46;;;;;;;6.88;1.95;;;1.90;69.20;;;;;;4635034;30;115318;-78
2023/01/31 03:27:13;;;;;;;10.43;3.38;;;1.80;69.10;;;;;;4635667;30;115423;-78
2023/01/31 03:29:41;;;;;;;8.75;2.38;;;1.90;68.90;;;;;;4621786;30;114379;-78
2023/01/31 03:32:23;;;;;;;7.85;1.80;;;1.90;68.80;;;;;;4633736;30;114765;-78
2023/01/31 03:34:51;;;;;;;7.07;2.20;;;1.90;68.40;;;;;;4631179;30;115096;-78
2023/01/31 03:37:38;;;;;;;8.27;2.40;;;1.90;68.30;;;;;;4633047;30;114924;-79
2023/01/31 03:40:56;;;;;;;11.85;2.75;;;1.90;68.00;;;;;;4634034;30;114575;-79
2023/01/31 03:43:43;;;;;;;9.57;2.17;;;1.90;67.90;;;;;;4644298;30;114716;-78
2023/01/31 03:46:15;;;;;;;5.95;2.10;;;1.90;67.70;;;;;;4620705;30;115786;-79
2023/01/31 03:48:45;;;;;;;10.65;2.60;;;1.90;67.70;;;;;;4620775;30;115265;-79
2023/01/31 03:51:18;;;;;;;14.52;2.90;;;1.90;67.70;;;;;;4621548;30;114473;-78
2023/01/31 03:53:51;;;;;;;7.35;2.00;;;1.90;67.70;;;;;;4621201;30;114582;-79
2023/01/31 03:56:39;;;;;;;9.55;2.10;;;1.90;67.60;;;;;;4620621;30;115123;-78
2023/01/31 03:59:16;;;;;;;8.75;2.38;;;2.00;67.50;;;;;;4649122;30;114795;-78
2023/01/31 04:01:48;;;;;;;8.63;2.13;;;1.90;67.60;;;;;;4636078;30;114754;-79
2023/01/31 04:04:31;;;;;;;7.20;1.63;;;1.90;67.50;;;;;;4636487;30;114389;-78
2023/01/31 04:07:00;;;;;;;8.45;3.70;;;1.90;67.40;;;;;;4621018;30;115061;-79
2023/01/31 04:09:27;;;;;;;5.68;1.63;;;1.90;67.60;;;;;;4635357;30;114789;-79
2023/01/31 04:11:57;;;;;;;8.05;1.65;;;1.90;67.60;;;;;;4620649;30;118344;-78
2023/01/31 04:14:24;;;;;;;7.95;2.75;;;1.90;67.50;;;;;;4621130;30;114378;-78
2023/01/31 04:16:51;;;;;;;6.03;1.90;;;1.90;67.40;;;;;;4650104;30;116393;-78
2023/01/31 04:19:19;;;;;;;10.73;2.03;;;1.90;67.40;;;;;;4634896;30;115208;-79
2023/01/31 04:21:46;;;;;;;8.07;1.80;;;1.90;67.40;;;;;;4649717;30;114477;-79
2023/01/31 04:24:13;;;;;;;10.45;2.33;;;1.80;67.20;;;;;;4635489;30;114483;-78
2023/01/31 04:26:40;;;;;;;6.50;2.08;;;1.90;67.00;;;;;;4649637;30;117431;-78
2023/01/31 04:29:09;;;;;;;9.82;2.53;;;1.80;66.90;;;;;;4650340;30;117347;-79
2023/01/31 04:31:36;;;;;;;6.43;2.05;;;1.80;66.90;;;;;;4649790;30;115530;-79
2023/01/31 04:34:04;;;;;;;7.43;2.42;;;1.80;66.80;;;;;;4649305;30;115416;-78
2023/01/31 04:36:31;;;;;;;8.65;2.08;;;1.80;66.90;;;;;;4648829;30;115196;-79
2023/01/31 04:38:59;;;;;;;9.95;2.33;;;1.80;67.00;;;;;;4646104;30;116336;-79
2023/01/31 04:41:27;;;;;;;9.20;1.95;;;1.80;66.90;;;;;;4650431;30;114345;-78
2023/01/31 04:43:54;;;;;;;5.63;2.20;;;1.80;67.00;;;;;;4648770;30;114505;-79
2023/01/31 04:46:22;;;;;;;6.65;1.67;;;1.80;67.00;;;;;;4649579;30;115219;-79
2023/01/31 04:48:49;;;;;;;10.18;2.28;;;1.80;67.00;;;;;;4649647;30;115065;-79
2023/01/31 04:51:16;;;;;;;8.38;2.05;;;1.80;66.90;;;;;;4650373;30;114712;-78
2023/01/31 04:53:44;;;;;;;6.13;1.88;;;1.80;66.80;;;;;;4618392;30;119455;-79
2023/01/31 04:56:11;;;;;;;6.78;1.60;;;1.80;66.70;;;;;;4645273;30;115230;-78
2023/01/31 04:58:40;;;;;;;7.88;1.98;;;1.80;66.60;;;;;;4616390;30;118291;-78
2023/01/31 05:01:07;;;;;;;6.47;2.28;;;1.90;66.50;;;;;;4616520;30;119294;-78
2023/01/31 05:03:35;;;;;;;9.57;1.65;;;1.80;66.40;;;;;;4617296;30;114741;-78
2023/01/31 05:06:02;;;;;;;5.38;1.70;;;1.80;66.30;;;;;;4632245;30;115785;-78
2023/01/31 05:08:30;;;;;;;11.07;1.98;;;1.80;66.00;;;;;;4615926;30;115400;-78
2023/01/31 05:11:02;;;;;;;7.93;2.15;;;1.80;65.90;;;;;;4648411;30;114437;-78
2023/01/31 05:13:31;;;;;;;13.23;2.08;;;1.80;65.80;;;;;;4635182;30;114972;-78
2023/01/31 05:15:59;;;;;;;8.52;2.25;;;1.80;65.80;;;;;;4633933;30;115096;-78
2023/01/31 05:18:26;;;;;;;9.93;2.00;;;1.80;65.70;;;;;;4648284;30;114704;-79
2023/01/31 05:20:53;;;;;;;6.68;1.65;;;1.80;65.80;;;;;;4649845;30;114517;-78
2023/01/31 05:23:21;;;;;;;7.70;1.70;;;1.80;65.70;;;;;;4620662;30;114321;-78
2023/01/31 05:25:49;;;;;;;9.98;1.80;;;1.80;65.60;;;;;;4647240;30;115645;-78
2023/01/31 05:28:17;;;;;;;15.48;2.28;;;1.80;65.50;;;;;;4633915;30;114653;-78
2023/01/31 05:30:44;;;;;;;7.22;2.03;;;1.90;65.40;;;;;;4633929;30;114331;-78
2023/01/31 05:33:13;;;;;;;8.80;2.13;;;1.80;65.20;;;;;;4648149;30;114503;-79
2023/01/31 05:35:41;;;;;;;7.45;1.80;;;1.80;65.10;;;;;;4647444;30;115099;-78
2023/01/31 05:38:08;;;;;;;7.38;1.98;;;1.80;64.70;;;;;;4648000;30;115465;-78
2023/01/31 05:40:36;;;;;;;18.15;2.42;;;1.80;64.60;;;;;;4649976;30;114803;-79
2023/01/31 05:43:03;;;;;;;7.70;2.17;;;1.80;64.40;;;;;;4634379;30;116238;-78
2023/01/31 05:45:30;;;;;;;11.77;2.25;;;1.80;64.30;;;;;;4647990;30;115103;-78
2023/01/31 05:47:58;;;;;;;13.32;2.50;;;1.80;64.10;;;;;;4633227;30;114804;-79
2023/01/31 05:50:26;;;;;;;7.40;2.05;;;1.70;63.90;;;;;;4648110;30;114580;-79
2023/01/31 05:52:55;;;;;;;8.65;1.83;;;1.70;63.40;;;;;;4648554;30;114705;-78
2023/01/31 05:55:22;;;;;;;7.75;1.70;;;1.70;63.30;;;;;;4633545;30;115557;-78
2023/01/31 05:57:51;;;;;;;8.40;1.88;;;1.70;63.10;;;;;;4648150;30;114881;-79
2023/01/31 06:00:19;;;;;;;11.85;2.10;;;1.70;63.10;;;;;;4633951;30;114557;-78
2023/01/31 06:02:47;;;;;;;6.47;1.92;;;1.70;63.00;;;;;;4633932;30;114346;-79
2023/01/31 06:05:14;;;;;;;8.85;1.88;;;1.70;62.80;;;;;;4647841;30;115211;-78
2023/01/31 06:07:41;;;;;;;10.15;2.35;;;1.70;62.90;;;;;;4648869;30;114919;-78
2023/01/31 06:10:10;;;;;;;6.13;1.52;;;1.70;62.70;;;;;;4648782;30;114273;-78
2023/01/31 06:12:37;;;;;;;10.68;1.40;;;1.70;62.50;;;;;;4634795;30;114203;-79
2023/01/31 06:15:05;;;;;;;8.32;2.35;;;1.70;62.70;;;;;;4647593;30;117206;-78
2023/01/31 06:17:33;;;;;;;11.38;1.85;;;1.70;62.70;;;;;;4649393;30;114665;-78
2023/01/31 06:20:00;;;;;;;9.30;2.90;;;1.70;62.50;;;;;;4649809;30;114583;-78
2023/01/31 06:22:27;;;;;;;10.43;1.70;;;1.60;62.70;;;;;;4633965;30;114671;-78
2023/01/31 06:24:59;;;;;;;11.45;1.98;;;1.60;62.80;;;;;;4647238;30;115556;-79
2023/01/31 06:27:31;;;;;;;7.97;2.40;;;1.60;62.80;;;;;;4633813;30;114744;-78
2023/01/31 06:29:59;;;;;;;6.63;1.85;;;1.60;62.80;;;;;;4633532;30;114451;-78
2023/01/31 06:32:26;;;;;;;9.95;2.00;;;1.60;62.90;;;;;;4649826;30;114568;-79
2023/01/31 06:34:53;;;;;;;5.57;1.52;;;1.60;62.80;;;;;;4648735;30;115151;-79
2023/01/31 06:37:20;;;;;;;8.93;1.88;;;1.60;62.90;;;;;;4648326;30;115143;-78
2023/01/31 06:39:48;;;;;;;6.07;1.48;;;1.70;62.90;;;;;;4647553;30;114284;-78
2023/01/31 06:42:15;;;;;;;7.88;2.78;;;1.70;62.90;;;;;;4649149;30;114406;-78
2023/01/31 06:44:42;;;;;;;8.60;2.30;;;1.70;62.90;;;;;;4648200;30;116782;-78
2023/01/31 06:47:11;;;;;;;5.60;1.63;;;1.70;62.80;;;;;;4632981;30;115098;-78
2023/01/31 06:49:39;;;;;;;12.00;3.58;;;1.70;62.80;;;;;;4633748;30;114865;-78
2023/01/31 06:52:06;;;;;;;16.80;4.00;;;1.70;62.90;;;;;;4647749;30;114417;-78
2023/01/31 06:54:33;;;;;;;16.85;4.95;;;1.60;62.90;;;;;;4646941;30;115505;-79
2023/01/31 06:57:00;;;;;;;8.93;2.65;;;1.60;63.00;;;;;;4648504;30;114723;-78
2023/01/31 06:59:27;;;;;;;8.73;2.20;;;1.70;63.10;;;;;;4662162;30;114655;-78
2023/01/31 07:01:55;;;;;;;8.63;1.88;;;1.60;63.10;;;;;;4651781;30;114351;-78
2023/01/31 07:04:23;;;;;;;21.58;3.42;;;1.60;63.10;;;;;;4650606;30;115089;-78
2023/01/31 07:06:50;;;;;;;12.18;2.83;;;1.60;63.20;;;;;;4651334;30;114839;-79
2023/01/31 07:09:17;;;;;;;9.27;2.47;;;1.60;63.30;;;;;;4651957;30;114596;-79
2023/01/31 07:11:45;;;;;;;10.55;2.53;;;1.70;63.30;;;;;;4636348;30;115167;-79
2023/01/31 07:14:12;;;;;;;13.77;2.40;;;1.70;63.30;;;;;;4635847;30;115045;-78
2023/01/31 07:16:39;;;;;;;9.60;2.47;;;1.70;63.30;;;;;;4621376;30;114807;-78
2023/01/31 07:19:06;;;;;;;9.65;2.50;;;1.70;63.30;;;;;;4651780;30;114459;-79
2023/01/31 07:21:35;;;;;;;8.32;3.10;;;1.70;63.30;;;;;;4650718;30;114593;-79
2023/01/31 07:24:03;;;;;;;12.02;2.60;;;1.70;63.20;;;;;;4649398;30;115415;-78
2023/01/31 07:26:30;;;;;;;12.43;2.95;;;1.80;63.30;;;;;;4650997;30;114659;-78
2023/01/31 07:28:57;;;;;;;12.60;2.72;;;1.80;63.20;;;;;;4651130;30;114584;-78
2023/01/31 07:31:24;;;;;;;9.85;2.30;;;1.80;63.10;;;;;;4650555;30;114375;-79
2023/01/31 07:33:52;;;;;;;13.27;3.03;;;1.80;63.00;;;;;;4634434;30;118837;-77
2023/01/31 07:36:25;;;;;;;8.32;2.20;;;1.80;63.10;;;;;;4650723;30;115115;-77
2023/01/31 07:38:54;;;;;;;9.50;2.70;;;1.80;63.10;;;;;;4651629;30;114607;-77
2023/01/31 07:41:23;;;;;;;8.10;2.38;;;1.80;63.20;;;;;;4650035;30;114654;-78
2023/01/31 07:43:52;;;;;;;12.73;2.33;;;1.80;63.20;;;;;;4635757;30;116511;-77
2023/01/31 07:46:19;;;;;;;10.32;2.65;;;1.90;63.10;;;;;;4649897;30;114706;-77
2023/01/31 07:48:47;;;;;;;11.93;2.20;;;1.90;63.20;;;;;;4650294;30;114570;-77
2023/01/31 07:51:14;;;;;;;13.23;3.58;;;1.80;63.20;;;;;;4650063;30;114723;-79
2023/01/31 07:53:42;;;;;;;12.20;2.85;;;1.80;63.20;;;;;;4648627;30;115247;-78
2023/01/31 07:56:17;;;;;;;11.27;2.50;;;1.90;63.20;;;;;;4649878;30;115996;-78
2023/01/31 07:58:45;;;;;;;;;;;1.90;63.00;;;;;;4651552;30;114659;-78
2023/01/31 08:04:01;;;;;;;14.18;3.42;;;1.80;63.20;;;;;;4637505;30;115189;-78
2023/01/31 08:06:47;;;;;;;11.27;3.03;;;1.80;63.20;;;;;;4637386;30;116567;-79
2023/01/31 08:09:14;;;;;;;10.18;2.53;;;1.80;63.20;;;;;;4636021;30;114323;-80
2023/01/31 08:11:41;;;;;;;10.25;2.58;;;1.80;63.10;;;;;;4635116;30;114568;-79
2023/01/31 08:14:09;;;;;;;12.82;2.88;;;1.80;63.10;;;;;;4649433;30;115239;-78
2023/01/31 08:16:37;;;;;;;7.78;2.03;;;1.90;63.20;;;;;;4634860;30;115832;-78
2023/01/31 08:19:04;;;;;;;8.27;2.38;;;1.90;63.10;;;;;;4650754;30;114525;-78
2023/01/31 08:21:32;;;;;;;11.20;2.25;;;1.90;63.10;;;;;;4621036;30;114446;-78
2023/01/31 08:23:59;;;;;;;9.43;2.50;;;2.00;63.00;;;;;;4649685;30;115180;-78
2023/01/31 08:26:26;;;;;;;12.40;2.97;;;2.00;62.80;;;;;;4649808;30;114774;-78
2023/01/31 08:28:55;;;;;;;9.90;2.58;;;2.10;62.70;;;;;;4650502;30;114686;-78
2023/01/31 08:31:29;;;;;;;14.70;2.78;;;2.00;62.60;;;;;;4650885;30;114415;-77
2023/01/31 08:33:57;;;;;;;9.48;2.83;;;2.00;62.70;;;;;;4619114;30;116550;-79
2023/01/31 08:36:30;;;;;;;8.10;2.00;;;2.00;62.70;;;;;;4650180;30;114757;-79
2023/01/31 08:38:57;;;;;;;9.93;2.85;;;2.00;62.50;;;;;;4649621;30;114476;-79
2023/01/31 08:41:25;;;;;;;13.70;2.72;;;2.10;62.70;;;;;;4635359;30;114417;-79
2023/01/31 08:43:54;;;;;;;10.55;2.72;;;2.10;62.60;;;;;;4633878;30;115171;-78
2023/01/31 08:46:26;;;;;;;9.98;2.40;;;2.10;62.50;;;;;;4634827;30;114784;-79
2023/01/31 08:48:54;;;;;;;8.55;2.70;;;2.10;62.50;;;;;;4649334;30;114447;-79
2023/01/31 08:51:21;;;;;;;8.43;2.40;;;2.10;62.50;;;;;;4649302;30;114633;-78
2023/01/31 08:53:49;;;;;;;5.93;1.92;;;2.10;62.50;;;;;;4633925;30;115163;-79
2023/01/31 08:56:18;;;;;;;8.25;2.53;;;2.10;62.40;;;;;;4649453;30;114943;-79
2023/01/31 08:58:45;;;;;;;9.85;3.55;;;2.10;62.30;;;;;;4620402;30;114744;-79
2023/01/31 09:01:14;;;;;;;8.38;2.20;;;2.10;62.40;;;;;;4650235;30;114442;-79
2023/01/31 09:03:42;;;;;;;8.65;1.95;;;2.10;62.40;;;;;;4647980;30;115234;-78
2023/01/31 09:06:17;;;;;;;10.90;2.60;;;2.20;62.40;;;;;;4634286;30;114895;-78
2023/01/31 09:08:44;;;;;;;9.68;2.17;;;2.20;62.30;;;;;;4619789;30;114598;-78
2023/01/31 09:11:17;;;;;;;6.90;2.30;;;2.10;62.30;;;;;;4650062;30;114496;-77
2023/01/31 09:13:50;;;;;;;11.50;2.30;;;2.20;62.20;;;;;;4648418;30;115152;-79
2023/01/31 09:16:21;;;;;;;11.43;2.60;;;2.20;62.30;;;;;;4634165;30;114743;-78
2023/01/31 09:18:51;;;;;;;10.90;3.05;;;2.20;62.50;;;;;;4650098;30;114613;-78
2023/01/31 09:21:19;;;;;;;14.18;2.47;;;2.20;62.50;;;;;;4633873;30;114873;-79
2023/01/31 09:23:47;;;;;;;8.50;2.22;;;2.20;62.30;;;;;;4647087;30;115277;-79
2023/01/31 09:26:15;;;;;;;8.63;2.55;;;2.20;62.40;;;;;;4649571;30;114764;-78
2023/01/31 09:28:42;;;;;;;11.52;2.45;;;2.30;62.40;;;;;;4634818;30;114789;-78
2023/01/31 09:31:14;;;;;;;6.97;2.03;;;2.20;62.40;;;;;;4634780;30;119119;-79
2023/01/31 09:33:44;;;;;;;8.27;2.55;;;2.30;62.60;;;;;;4648515;30;115278;-80
2023/01/31 09:36:18;;;;;;;12.30;2.83;;;2.30;62.50;;;;;;4620106;30;114707;-79
2023/01/31 09:38:48;;;;;;;8.55;2.80;;;2.20;62.30;;;;;;4648423;30;114475;-78
2023/01/31 09:41:24;;;;;;;10.52;2.63;;;2.20;62.50;;;;;;4633839;30;114705;-78
2023/01/31 09:44:01;;;;;;;9.38;2.88;;;2.20;62.60;;;;;;4647613;30;115266;-78
2023/01/31 09:46:43;;;;;;;10.32;2.67;;;2.20;62.80;;;;;;4620018;30;114520;-78
2023/01/31 09:49:20;;;;;;;12.02;2.90;;;2.20;62.90;;;;;;4648418;30;114562;-78
2023/01/31 09:51:51;;;;;;;9.85;3.50;;;2.20;62.90;;;;;;4634564;30;114498;-78
2023/01/31 09:54:33;;;;;;;9.68;3.10;;;2.20;62.90;;;;;;4633802;30;115220;-79
2023/01/31 09:57:43;;;;;;;11.60;2.70;;;2.20;62.90;;;;;;4633416;30;114719;-79
2023/01/31 10:00:31;;;;;;;8.02;2.42;;;2.30;63.00;;;;;;4626447;30;115166;-79
2023/01/31 10:03:56;;;;;;;9.48;2.20;;;2.30;62.90;;;;;;4649669;30;114412;-78
2023/01/31 10:06:33;;;;;;;7.30;2.55;;;2.40;62.30;;;;;;4648641;30;117253;-79
2023/01/31 10:09:14;;;;;;;7.93;2.30;;;2.30;62.30;;;;;;4647747;30;114886;-78
2023/01/31 10:11:48;;;;;;;5.22;2.83;;;2.40;61.80;;;;;;4648497;30;114582;-79
2023/01/31 10:14:25;;;;;;;8.35;2.78;;;2.40;61.70;;;;;;4634076;30;114412;-78
2023/01/31 10:17:16;;;;;;;7.00;2.20;;;2.40;61.60;;;;;;4647017;30;115090;-79
2023/01/31 10:19:55;;;;;;;6.50;2.67;;;2.40;61.10;;;;;;4647918;30;117348;-79
2023/01/31 10:23:22;;;;;;;9.25;2.40;;;2.40;61.10;;;;;;4633882;30;114490;-77
2023/01/31 10:26:02;;;;;;;6.75;1.80;;;2.60;60.70;;;;;;4648261;30;114826;-79
2023/01/31 10:29:00;;;;;;;5.95;2.28;;;2.60;60.50;;;;;;4632722;30;118942;-79
2023/01/31 10:31:55;;;;;;;7.22;2.25;;;2.60;59.90;;;;;;4632587;30;115226;-78
2023/01/31 10:34:44;;;;;;;7.55;2.13;;;2.60;59.70;;;;;;4649283;30;114458;-79
2023/01/31 10:37:13;;;;;;;6.05;2.20;;;2.60;59.70;;;;;;4637101;30;114847;-79
2023/01/31 10:39:47;;;;;;;7.70;2.70;;;2.60;59.60;;;;;;4651300;30;115191;-78
2023/01/31 10:42:22;;;;;;;7.80;2.22;;;2.70;59.30;;;;;;4649456;30;115409;-78
2023/01/31 10:45:17;;;;;;;7.25;2.08;;;2.60;59.50;;;;;;4636265;30;118506;-79
2023/01/31 10:48:00;;;;;;;6.38;1.95;;;2.70;59.00;;;;;;4637016;30;114398;-79
2023/01/31 10:51:03;;;;;;;7.53;2.10;;;2.70;58.90;;;;;;4648427;30;116664;-79
2023/01/31 10:53:43;;;;;;;7.28;2.40;;;2.70;58.90;;;;;;4650112;30;115066;-78
2023/01/31 10:56:33;;;;;;;10.85;2.20;;;2.70;58.80;;;;;;4650088;30;114875;-79
2023/01/31 10:59:10;;;;;;;8.60;1.98;;;2.70;58.80;;;;;;4650438;30;114585;-79
2023/01/31 11:01:41;;;;;;;8.02;2.10;;;2.60;59.10;;;;;;4635469;30;115352;-79
2023/01/31 11:04:29;;;;;;;8.50;1.85;;;2.60;59.10;;;;;;4649600;30;115266;-79
2023/01/31 11:07:00;;;;;;;10.55;2.45;;;2.70;58.70;;;;;;4650184;30;114456;-79
2023/01/31 11:09:54;;;;;;;7.30;2.13;;;2.70;58.90;;;;;;4635707;30;114855;-80
2023/01/31 11:12:38;;;;;;;11.02;2.67;;;2.70;59.00;;;;;;4649538;30;117408;-79
2023/01/31 11:15:14;;;;;;;6.88;1.85;;;2.80;59.30;;;;;;4649225;30;115154;-79
2023/01/31 11:17:47;;;;;;;10.32;3.50;;;2.90;59.40;;;;;;4651213;30;114710;-79
2023/01/31 11:20:33;;;;;;;10.02;2.65;;;3.00;59.30;;;;;;4635798;30;114984;-78
2023/01/31 11:23:00;;;;;;;10.10;3.67;;;3.10;59.10;;;;;;4634651;30;116368;-79
2023/01/31 11:25:29;;;;;;;19.92;6.50;;;3.10;59.10;;;;;;4635196;30;114815;-79
2023/01/31 11:28:02;;;;;;;10.65;3.40;;;3.10;59.00;;;;;;4636080;30;114380;-78
2023/01/31 11:30:39;;;;;;;11.05;3.38;;;3.10;59.00;;;;;;4635632;30;114516;-79
2023/01/31 11:33:10;;;;;;;14.10;4.30;;;3.20;58.90;;;;;;4649330;30;115432;-79
2023/01/31 11:35:38;;;;;;;15.32;5.32;;;3.10;59.10;;;;;;4634454;30;114966;-78
2023/01/31 11:38:11;;;;;;;17.65;6.97;;;3.10;59.30;;;;;;4651093;30;114593;-77
2023/01/31 11:40:39;;;;;;;15.63;5.88;;;3.20;59.30;;;;;;4651018;30;116549;-78
2023/01/31 11:43:18;;;;;;;11.85;5.57;;;3.20;59.50;;;;;;4649019;30;115049;-78
2023/01/31 11:46:00;;;;;;;10.63;5.00;;;3.20;59.50;;;;;;4649268;30;114782;-79
2023/01/31 11:48:42;;;;;;;15.20;5.30;;;3.10;59.70;;;;;;4618698;30;114734;-79
2023/01/31 11:51:26;;;;;;;11.82;4.88;;;3.10;59.90;;;;;;4663635;30;114508;-79
2023/01/31 11:53:53;;;;;;;12.07;3.97;;;3.10;59.90;;;;;;4620407;30;115116;-79
2023/01/31 11:56:26;;;;;;;11.82;4.70;;;3.10;60.00;;;;;;4648802;30;114651;-80
2023/01/31 11:58:56;;;;;;;11.65;3.85;;;3.10;60.10;;;;;;4648309;30;114483;-78
2023/01/31 12:01:27;;;;;;;13.55;5.05;;;3.10;60.20;;;;;;4635168;30;114550;-78
2023/01/31 12:04:06;;;;;;;9.30;4.20;;;3.10;60.30;;;;;;4649267;30;116162;-79
2023/01/31 12:06:39;;;;;;;10.00;3.55;;;3.10;60.40;;;;;;4635706;30;114885;-79
2023/01/31 12:09:24;;;;;;;10.93;4.20;;;3.10;60.70;;;;;;4649453;30;114762;-79
2023/01/31 12:12:05;;;;;;;12.27;5.60;;;3.10;60.70;;;;;;4635566;30;114561;-80
2023/01/31 12:14:43;;;;;;;16.67;7.35;;;3.10;61.00;;;;;;4648189;30;115130;-80
2023/01/31 12:17:13;;;;;;;15.65;5.85;;;3.10;61.00;;;;;;4634196;30;115095;-79
2023/01/31 12:20:11;;;;;;;13.05;6.75;;;3.00;61.10;;;;;;4635356;30;114607;-80
2023/01/31 12:23:15;;;;;;;13.73;6.35;;;3.10;61.20;;;;;;4649330;30;114469;-80
2023/01/31 12:26:07;;;;;;;17.45;5.20;;;2.90;61.40;;;;;;4648450;30;116085;-79
2023/01/31 12:29:24;;;;;;;14.70;5.68;;;2.80;61.50;;;;;;4648140;30;115440;-79
2023/01/31 12:32:29;;;;;;;9.10;5.10;;;2.80;61.70;;;;;;4648961;30;114824;-79
2023/01/31 12:35:09;;;;;;;12.07;5.30;;;2.70;61.90;;;;;;4650064;30;114708;-79
2023/01/31 12:38:24;;;;;;;13.48;5.60;;;2.70;62.10;;;;;;4648237;30;115109;-79
2023/01/31 12:40:54;;;;;;;11.57;4.85;;;2.70;62.20;;;;;;4648369;30;114678;-79
2023/01/31 12:43:54;;;;;;;12.25;4.72;;;2.70;62.40;;;;;;4647904;30;115430;-80
2023/01/31 12:47:22;;;;;;;15.23;5.43;;;2.70;62.50;;;;;;4649938;30;114500;-79
2023/01/31 12:50:17;;;;;;;23.70;10.60;;;2.70;62.60;;;;;;4636402;30;115177;-79
2023/01/31 12:53:10;;;;;;;31.00;12.32;;;2.70;62.70;;;;;;4648016;30;114805;-79
2023/01/31 12:55:58;;;;;;;24.08;10.25;;;2.70;62.80;;;;;;4648684;30;114952;-79
2023/01/31 12:59:04;;;;;;;25.40;10.73;;;2.70;62.90;;;;;;4648690;30;114850;-79
2023/01/31 13:02:07;;;;;;;18.02;6.90;;;2.70;62.90;;;;;;4648211;30;115600;-78
2023/01/31 13:05:02;;;;;;;15.70;6.43;;;2.70;63.00;;;;;;4649601;30;114731;-77
2023/01/31 13:07:43;;;;;;;13.95;6.43;;;2.70;63.20;;;;;;4650059;30;114465;-77
2023/01/31 13:10:28;;;;;;;11.77;6.10;;;2.70;63.20;;;;;;4634791;30;114511;-78
2023/01/31 13:12:56;;;;;;;12.77;6.28;;;2.70;63.30;;;;;;4649064;30;115226;-78
2023/01/31 13:15:30;;;;;;;10.70;5.30;;;2.70;63.30;;;;;;4633814;30;114887;-78
2023/01/31 13:18:02;;;;;;;10.00;4.95;;;2.60;63.60;;;;;;4634501;30;114411;-78
2023/01/31 13:20:34;;;;;;;12.20;5.60;;;2.60;63.80;;;;;;4620499;30;114773;-78
2023/01/31 13:23:15;;;;;;;10.52;5.43;;;2.70;64.00;;;;;;4648207;30;115107;-78
2023/01/31 13:25:53;;;;;;;14.30;5.15;;;2.60;64.00;;;;;;4633258;30;115256;-78
2023/01/31 13:28:36;;;;;;;12.05;6.25;;;2.70;64.20;;;;;;4634468;30;114466;-77
2023/01/31 13:31:05;;;;;;;16.83;7.43;;;2.70;64.40;;;;;;4634514;30;114844;-78